Time;durP1;ratioP1;P1;durP2;ratioP2;P2;SDS_P1;SDS_P2;PMS_P1;PMS_P2;Temp;Humidity;BMP_temperature;BMP_pressure;BME280_temperature;BME280_humidity;BME280_pressure;Samples;Min_cycle;Max_cycle;Signal;HPM_P1;HPM_P2
2022/03/18 00:02:11;;;;;;;21.33;6.20;;;;;;;-146.64;100.00;106927.25;5024720;28;20021;-86
2022/03/18 00:04:36;;;;;;;22.10;6.65;;;;;;;-146.64;100.00;107193.69;5043484;28;20499;-86
2022/03/18 00:07:02;;;;;;;19.77;6.75;;;;;;;-146.64;100.00;106394.44;5027231;28;20025;-86
2022/03/18 00:09:29;;;;;;;12.68;5.82;;;;;;;-146.64;100.00;107193.69;5021802;28;20029;-85
2022/03/18 00:11:54;;;;;;;15.75;6.40;;;;;;;-146.64;100.00;108792.72;5027161;28;20119;-86
2022/03/18 00:14:21;;;;;;;28.08;7.47;;;;;;;-146.64;100.00;107993.13;5026066;28;20476;-86
2022/03/18 00:16:46;;;;;;;16.73;6.35;;;;;;;-146.64;100.00;107460.16;5026767;28;20116;-85
2022/03/18 00:19:12;;;;;;;22.30;6.85;;;;;;;-146.64;100.00;106927.25;5042398;28;20053;-86
2022/03/18 00:21:37;;;;;;;16.38;6.07;;;;;;;-146.64;100.00;106927.25;5042994;28;20061;-86
2022/03/18 00:24:03;;;;;;;21.42;6.30;;;;;;;-146.64;100.00;106927.25;5043321;28;20035;-86
2022/03/18 00:26:31;;;;;;;20.23;6.75;;;;;;;-146.64;100.00;107726.63;5034878;28;20079;-86
2022/03/18 00:28:57;;;;;;;;;;;;;;;-146.64;100.00;107993.13;5027258;28;20077;-86
2022/03/18 00:31:23;;;;;;;13.27;6.85;;;;;;;-146.64;100.00;107193.69;5026805;28;19920;-85
2022/03/18 00:33:48;;;;;;;22.75;6.78;;;;;;;-146.64;100.00;107460.16;5042476;28;20029;-85
2022/03/18 00:36:13;;;;;;;17.08;7.05;;;;;;;-146.64;100.00;106394.44;5042550;28;20026;-86
2022/03/18 00:38:39;;;;;;;20.80;7.28;;;;;;;-146.64;100.00;107460.16;5022472;28;20022;-85
2022/03/18 00:41:05;;;;;;;28.80;6.78;;;;;;;-146.64;100.00;107993.13;5045064;28;20034;-86
2022/03/18 00:43:32;;;;;;;14.38;6.68;;;;;;;-146.64;100.00;109059.28;5010137;28;20424;-86
2022/03/18 00:45:57;;;;;;;26.88;7.00;;;;;;;-146.64;100.00;108792.72;5043194;28;20037;-86
2022/03/18 00:53:51;;;;;;;12.73;6.30;;;;;;;-146.64;100.00;108526.16;5042475;28;20059;-86
2022/03/18 00:56:17;;;;;;;18.88;7.65;;;;;;;-146.64;100.00;107993.13;5022670;28;20046;-85
2022/03/18 00:58:43;;;;;;;16.70;6.63;;;;;;;-146.64;100.00;108526.16;5036346;28;20101;-86
2022/03/18 01:01:08;;;;;;;16.90;6.07;;;;;;;-146.64;100.00;108526.16;5043268;28;20440;-86
2022/03/18 01:03:34;;;;;;;13.50;7.38;;;;;;;-146.64;100.00;108792.72;5025598;28;20033;-86
2022/03/18 01:05:59;;;;;;;16.85;6.93;;;;;;;-146.64;100.00;110125.69;5043217;28;20033;-86
2022/03/18 01:08:24;;;;;;;17.20;7.00;;;;;;;-146.64;100.00;110925.69;5042191;28;20057;-86
2022/03/18 01:10:50;;;;;;;16.95;6.45;;;;;;;-146.64;100.00;110659.00;5038136;28;20044;-86
2022/03/18 01:13:15;;;;;;;23.40;6.93;;;;;;;-146.64;100.00;110925.69;5042486;28;20037;-86
2022/03/18 01:15:42;;;;;;;17.08;7.65;;;;;;;-146.64;100.00;111192.41;5042489;28;20089;-85
2022/03/18 01:18:07;;;;;;;15.68;6.80;;;;;;;-146.64;100.00;110925.69;5041904;28;20033;-86
2022/03/18 01:20:33;;;;;;;18.45;7.30;;;;;;;-146.64;100.00;110125.69;5041857;28;20056;-85
2022/03/18 01:23:00;;;;;;;26.77;7.28;;;;;;;-146.64;100.00;111725.84;5043411;28;20037;-85
2022/03/18 01:25:25;;;;;;;19.05;7.22;;;;;;;-146.64;100.00;111725.84;5041867;28;20040;-85
2022/03/18 01:27:51;;;;;;;17.25;7.10;;;;;;;-146.64;100.00;112792.97;5009147;28;20037;-86
2022/03/18 01:30:16;;;;;;;19.58;6.75;;;;;;;-146.64;100.00;113059.81;5041780;28;20034;-85
2022/03/18 01:32:42;;;;;;;17.70;7.15;;;;;;;-146.64;100.00;113326.63;5042701;28;20040;-86
2022/03/18 01:35:08;;;;;;;19.75;6.93;;;;;;;-146.64;100.00;113059.81;5041899;28;20068;-86
2022/03/18 01:37:34;;;;;;;26.10;7.07;;;;;;;-146.64;100.00;112792.97;5040494;28;20025;-85
2022/03/18 01:39:59;;;;;;;20.33;6.57;;;;;;;-146.64;100.00;111992.59;5041841;28;20033;-86
2022/03/18 01:42:24;;;;;;;16.13;6.82;;;;;;;-146.64;100.00;112792.97;5025253;28;20029;-85
2022/03/18 01:44:50;;;;;;;14.80;6.28;;;;;;;-146.64;100.00;112259.38;5025449;28;20029;-84
2022/03/18 01:47:15;;;;;;;16.88;6.88;;;;;;;-146.64;100.00;112526.16;5041348;28;20021;-86
2022/03/18 01:49:41;;;;;;;16.05;6.65;;;;;;;-146.64;100.00;112792.97;5040692;28;20037;-85
2022/03/18 01:52:09;;;;;;;21.58;6.68;;;;;;;-146.64;100.00;112259.38;5042062;28;20075;-85
2022/03/18 01:54:49;;;;;;;14.50;5.90;;;;;;;-146.64;100.00;111992.59;5024355;28;20056;-85
2022/03/18 01:57:21;;;;;;;17.85;7.60;;;;;;;-146.64;100.00;113059.81;5026629;28;20024;-86
2022/03/18 01:59:48;;;;;;;17.23;7.30;;;;;;;-146.64;100.00;112792.97;5024116;28;20044;-85
2022/03/18 02:02:14;;;;;;;18.20;7.45;;;;;;;-146.64;100.00;113059.81;5038286;28;20109;-84
2022/03/18 02:04:40;;;;;;;19.02;6.57;;;;;;;-146.64;100.00;112792.97;5039209;28;20026;-85
2022/03/18 02:07:06;;;;;;;14.20;7.13;;;;;;;-146.64;100.00;111992.59;5039983;28;20021;-85
2022/03/18 02:09:32;;;;;;;18.88;6.30;;;;;;;-146.64;100.00;111725.84;5022237;28;20119;-84
2022/03/18 02:11:57;;;;;;;18.80;6.38;;;;;;;-146.64;100.00;111725.84;5021782;28;20495;-84
2022/03/18 02:14:49;;;;;;;18.35;7.45;;;;;;;-146.64;100.00;111192.41;5022250;28;20067;-84
2022/03/18 02:17:17;;;;;;;17.70;7.75;;;;;;;-146.64;100.00;111459.13;5036062;28;20042;-84
2022/03/18 02:19:43;;;;;;;14.10;5.93;;;;;;;-146.64;100.00;111725.84;5022548;28;20029;-83
2022/03/18 02:22:10;;;;;;;14.73;6.40;;;;;;;-146.64;100.00;111192.41;5039416;28;20092;-83
2022/03/18 02:24:37;;;;;;;13.80;6.95;;;;;;;-146.64;100.00;110659.00;5037711;28;20338;-83
2022/03/18 02:27:03;;;;;;;22.17;7.15;;;;;;;-146.64;100.00;110392.34;5022651;28;20029;-84
2022/03/18 02:29:29;;;;;;;21.77;6.25;;;;;;;-146.64;100.00;110659.00;5039822;28;20167;-84
2022/03/18 02:31:54;;;;;;;14.30;6.20;;;;;;;-146.64;100.00;111192.41;5022204;28;20029;-84
2022/03/18 02:34:20;;;;;;;15.68;6.15;;;;;;;-146.64;100.00;111459.13;5020846;28;20021;-84
2022/03/18 02:36:45;;;;;;;12.63;6.45;;;;;;;-146.64;100.00;110659.00;5021179;28;20434;-84
2022/03/18 02:39:11;;;;;;;18.08;6.30;;;;;;;-146.64;100.00;110392.34;5011440;28;20061;-84
2022/03/18 02:41:36;;;;;;;24.45;7.50;;;;;;;-146.64;100.00;110392.34;5006322;28;20044;-84
2022/03/18 02:44:01;;;;;;;15.43;6.45;;;;;;;-146.64;100.00;110659.00;5022203;28;20034;-84
2022/03/18 02:46:27;;;;;;;17.80;6.65;;;;;;;-146.64;100.00;110125.69;5041887;28;20026;-84
2022/03/18 02:48:52;;;;;;;15.38;6.40;;;;;;;-146.64;100.00;110659.00;5022513;28;20029;-85
2022/03/18 02:51:18;;;;;;;20.75;7.00;;;;;;;-146.64;100.00;111459.13;5037863;28;20106;-84
2022/03/18 02:53:43;;;;;;;16.23;6.65;;;;;;;-146.64;100.00;111725.84;5022047;28;20028;-84
2022/03/18 02:56:09;;;;;;;11.98;6.30;;;;;;;-146.64;100.00;111459.13;5021211;28;20025;-84
2022/03/18 02:58:37;;;;;;;14.32;6.50;;;;;;;-146.64;100.00;111192.41;5038894;28;20056;-85
2022/03/18 03:01:03;;;;;;;18.77;6.55;;;;;;;-146.64;100.00;110392.34;5038475;28;20033;-84
2022/03/18 03:03:29;;;;;;;12.90;6.18;;;;;;;-146.64;100.00;109592.44;5023413;28;20076;-85
2022/03/18 03:08:39;;;;;;;12.10;6.18;;;;;;;-146.64;100.00;110659.00;5031632;28;20037;-84
2022/03/18 03:11:05;;;;;;;14.45;6.43;;;;;;;-146.64;100.00;110125.69;5012909;28;20034;-83
2022/03/18 03:13:31;;;;;;;21.17;6.68;;;;;;;-146.64;100.00;110125.69;5041164;28;20045;-83
2022/03/18 03:15:56;;;;;;;14.15;6.35;;;;;;;-146.64;100.00;109859.06;5038091;28;20041;-84
2022/03/18 03:18:22;;;;;;;18.33;6.13;;;;;;;-146.64;100.00;110392.34;5026622;28;20029;-84
2022/03/18 03:20:48;;;;;;;20.48;6.40;;;;;;;-146.64;100.00;110125.69;5037090;28;20418;-84
2022/03/18 03:23:13;;;;;;;16.05;6.82;;;;;;;-146.64;100.00;109859.06;5022883;28;20546;-84
2022/03/18 03:25:40;;;;;;;12.27;6.03;;;;;;;-146.64;100.00;109859.06;5017005;28;20018;-84
2022/03/18 03:28:05;;;;;;;16.97;6.53;;;;;;;-146.64;100.00;111459.13;5039398;28;20061;-84
2022/03/18 03:30:31;;;;;;;15.50;6.68;;;;;;;-146.64;100.00;111459.13;5039171;28;20291;-83
2022/03/18 03:32:56;;;;;;;19.35;6.50;;;;;;;-146.64;100.00;110392.34;5039612;28;20029;-84
2022/03/18 03:35:21;;;;;;;14.48;6.22;;;;;;;-146.64;100.00;111459.13;5038958;28;20484;-84
2022/03/18 03:37:47;;;;;;;19.65;7.07;;;;;;;-146.64;100.00;111725.84;5040863;28;20078;-83
2022/03/18 03:40:13;;;;;;;19.67;6.32;;;;;;;-146.64;100.00;112259.38;5038115;28;20068;-83
2022/03/18 03:42:42;;;;;;;12.15;6.28;;;;;;;-146.64;100.00;113059.81;5038422;28;20030;-84
2022/03/18 03:45:12;;;;;;;17.33;7.18;;;;;;;-146.64;100.00;113059.81;5023161;28;20039;-84
2022/03/18 03:47:38;;;;;;;20.25;7.82;;;;;;;-146.64;100.00;113059.81;5039736;28;20017;-85
2022/03/18 03:50:05;;;;;;;20.57;6.63;;;;;;;-146.64;100.00;113059.81;5041876;28;20029;-83
2022/03/18 03:52:30;;;;;;;17.45;6.25;;;;;;;-146.64;100.00;112792.97;5026535;28;20116;-84
2022/03/18 03:54:56;;;;;;;12.48;6.18;;;;;;;-146.64;100.00;112259.38;5026560;28;20055;-84
2022/03/18 03:57:22;;;;;;;11.50;5.60;;;;;;;-146.64;100.00;112792.97;5043357;28;20473;-83
2022/03/18 03:59:47;;;;;;;11.80;6.93;;;;;;;-146.64;100.00;113059.81;5044149;28;20112;-83
2022/03/18 04:02:12;;;;;;;19.42;6.68;;;;;;;-146.64;100.00;113860.38;5026612;28;20099;-85
2022/03/18 04:04:39;;;;;;;21.30;6.53;;;;;;;-146.64;100.00;114127.28;5042529;28;20025;-84
2022/03/18 04:07:05;;;;;;;;;;;;;;;-146.64;100.00;114661.13;5026610;28;20082;-84
2022/03/18 04:09:30;;;;;;;15.68;6.47;;;;;;;-146.64;100.00;115195.03;5026468;28;19913;-84
2022/03/18 04:11:55;;;;;;;14.32;6.53;;;;;;;-146.64;100.00;115195.03;5042095;28;20377;-85
2022/03/18 04:14:21;;;;;;;16.38;6.80;;;;;;;-146.64;100.00;114928.06;5025667;28;20464;-85
2022/03/18 04:16:46;;;;;;;16.33;6.60;;;;;;;-146.64;100.00;114661.13;5043153;28;20026;-84
2022/03/18 04:19:12;;;;;;;12.02;6.07;;;;;;;-146.64;100.00;114661.13;5025498;28;20052;-84
2022/03/18 04:21:37;;;;;;;14.73;6.07;;;;;;;-146.64;100.00;114394.19;5041773;28;20037;-84
2022/03/18 04:24:03;;;;;;;16.33;7.10;;;;;;;-146.64;100.00;113860.38;5026412;28;20480;-85
2022/03/18 04:26:28;;;;;;;11.95;5.63;;;;;;;-146.64;100.00;114127.28;5022302;28;20053;-83
2022/03/18 04:28:54;;;;;;;14.38;7.10;;;;;;;-146.64;100.00;114127.28;5035281;28;20064;-84
2022/03/18 04:31:19;;;;;;;10.45;6.05;;;;;;;-146.64;100.00;113860.38;5025834;28;20068;-82
2022/03/18 04:33:45;;;;;;;15.52;7.32;;;;;;;-146.64;100.00;113593.50;5022973;28;20049;-84
2022/03/18 04:36:10;;;;;;;12.35;6.18;;;;;;;-146.64;100.00;113593.50;5024242;28;20021;-84
2022/03/18 04:38:35;;;;;;;17.98;6.47;;;;;;;-146.64;100.00;113326.63;5025755;28;20194;-84
2022/03/18 04:41:01;;;;;;;14.93;6.40;;;;;;;-146.64;100.00;113059.81;5040686;28;20036;-83
2022/03/18 04:43:26;;;;;;;16.15;7.05;;;;;;;-146.64;100.00;112792.97;5042861;28;20029;-84
2022/03/18 04:45:52;;;;;;;14.88;6.95;;;;;;;-146.64;100.00;113059.81;5041338;28;20060;-85
2022/03/18 04:48:18;;;;;;;15.75;6.88;;;;;;;-146.64;100.00;113593.50;5025486;28;20412;-84
2022/03/18 04:50:45;;;;;;;16.85;7.10;;;;;;;-146.64;100.00;113593.50;5042269;28;20037;-84
2022/03/18 04:53:10;;;;;;;12.23;4.82;;;;;;;-146.64;100.00;113326.63;5022244;28;20037;-84
2022/03/18 04:55:35;;;;;;;20.48;6.32;;;;;;;-146.64;100.00;113593.50;5035854;28;20037;-84
2022/03/18 04:58:01;;;;;;;19.27;7.50;;;;;;;-146.64;100.00;113860.38;5041741;28;20087;-84
2022/03/18 05:00:27;;;;;;;12.65;6.25;;;;;;;-146.64;100.00;114127.28;5041772;28;20021;-84
2022/03/18 05:02:52;;;;;;;17.63;7.28;;;;;;;-146.64;100.00;114127.28;5025359;28;20124;-84
2022/03/18 05:05:19;;;;;;;16.95;7.30;;;;;;;-146.64;100.00;114127.28;5040954;28;20108;-84
2022/03/18 05:07:49;;;;;;;12.88;7.85;;;;;;;-146.64;100.00;115195.03;5024989;28;20014;-84
2022/03/18 05:10:14;;;;;;;16.10;7.95;;;;;;;-146.64;100.00;114661.13;5033434;28;20032;-84
2022/03/18 05:12:40;;;;;;;17.17;7.88;;;;;;;-146.64;100.00;114127.28;5021719;28;20494;-84
2022/03/18 05:15:06;;;;;;;10.98;7.43;;;;;;;-146.64;100.00;114127.28;5023984;28;20028;-84
2022/03/18 05:17:32;;;;;;;16.35;7.72;;;;;;;-146.64;100.00;114394.19;5025665;28;20111;-86
2022/03/18 05:19:57;;;;;;;16.92;7.72;;;;;;;-146.64;100.00;114928.06;5039012;28;20520;-85
2022/03/18 05:22:22;;;;;;;15.52;7.28;;;;;;;-146.64;100.00;115195.03;5042569;28;20485;-84
2022/03/18 05:24:48;;;;;;;18.73;7.95;;;;;;;-146.64;100.00;115729.00;5042042;28;20026;-84
2022/03/18 05:27:13;;;;;;;16.48;9.18;;;;;;;-146.64;100.00;115996.03;5025223;28;20110;-84
2022/03/18 05:29:38;;;;;;;13.90;7.00;;;;;;;-146.64;100.00;115996.03;5031991;28;20025;-84
2022/03/18 05:32:06;;;;;;;14.13;7.63;;;;;;;-146.64;100.00;115729.00;5025319;28;20037;-84
2022/03/18 05:34:32;;;;;;;;;;;;;;;-146.64;100.00;115996.03;5039712;28;20038;-85
2022/03/18 05:36:57;;;;;;;13.85;6.95;;;;;;;-146.64;100.00;115996.03;5038394;28;19951;-83
2022/03/18 05:39:23;;;;;;;17.60;7.15;;;;;;;-146.64;100.00;115729.00;5019570;28;20021;-83
2022/03/18 05:41:51;;;;;;;20.40;7.45;;;;;;;-146.64;100.00;115996.03;5036921;28;20033;-84
2022/03/18 05:44:17;;;;;;;19.08;7.72;;;;;;;-146.64;100.00;115462.00;5031347;28;20033;-84
2022/03/18 05:46:44;;;;;;;18.33;9.50;;;;;;;-146.64;100.00;115462.00;5041351;28;20029;-84
2022/03/18 05:49:09;;;;;;;13.05;6.57;;;;;;;-146.64;100.00;115195.03;5041039;28;20029;-84
2022/03/18 05:51:35;;;;;;;14.43;8.00;;;;;;;-146.64;100.00;114928.06;5038312;28;20029;-83
2022/03/18 05:54:02;;;;;;;13.35;7.53;;;;;;;-146.64;100.00;114661.13;5040481;28;20017;-84
2022/03/18 05:59:11;;;;;;;11.80;7.15;;;;;;;-146.64;100.00;114661.13;5027239;28;20296;-83
2022/03/18 06:01:38;;;;;;;16.63;8.20;;;;;;;-146.64;100.00;114127.28;5020756;28;20045;-84
2022/03/18 06:04:04;;;;;;;15.68;7.03;;;;;;;-146.64;100.00;113860.38;5032574;28;20037;-85
2022/03/18 06:06:30;;;;;;;9.50;6.05;;;;;;;-146.64;100.00;113860.38;5019330;28;20639;-85
2022/03/18 06:11:49;;;;;;;13.38;7.22;;;;;;;-146.64;100.00;113593.50;5034780;28;20082;-85
2022/03/18 06:14:19;;;;;;;12.07;7.72;;;;;;;-146.64;100.00;113593.50;5018155;28;20025;-85
2022/03/18 06:16:48;;;;;;;20.23;8.43;;;;;;;-146.64;100.00;113326.63;5033701;28;20029;-83
2022/03/18 06:19:18;;;;;;;13.98;7.95;;;;;;;-146.64;100.00;113326.63;5035423;28;20120;-84
2022/03/18 06:21:47;;;;;;;16.80;7.53;;;;;;;-146.64;100.00;112526.16;5035759;28;20021;-82
2022/03/18 06:24:13;;;;;;;15.13;6.68;;;;;;;-146.64;100.00;112259.38;5034756;28;20480;-84
2022/03/18 06:26:38;;;;;;;11.93;6.60;;;;;;;-146.64;100.00;112259.38;5018169;28;20029;-84
2022/03/18 06:29:05;;;;;;;14.32;8.23;;;;;;;-146.64;100.00;112792.97;5033356;28;20145;-85
2022/03/18 06:31:31;;;;;;;17.20;8.23;;;;;;;-146.64;100.00;112792.97;4999858;28;20033;-83
2022/03/18 06:33:56;;;;;;;12.23;7.57;;;;;;;-146.64;100.00;112792.97;5035237;28;20156;-83
2022/03/18 06:36:21;;;;;;;12.15;6.97;;;;;;;-146.64;100.00;112526.16;5018485;28;20048;-85
2022/03/18 06:38:46;;;;;;;14.02;7.15;;;;;;;-146.64;100.00;111992.59;5019215;28;20017;-84
2022/03/18 06:41:12;;;;;;;12.90;7.53;;;;;;;-146.64;100.00;112259.38;5034670;28;20037;-83
2022/03/18 06:43:38;;;;;;;39.42;18.17;;;;;;;-146.64;100.00;112259.38;5018965;28;20033;-84
2022/03/18 06:46:03;;;;;;;38.35;17.17;;;;;;;-146.64;100.00;113059.81;5017607;28;20052;-83
2022/03/18 06:48:29;;;;;;;43.67;18.88;;;;;;;-146.64;100.00;113593.50;5035071;28;20417;-84
2022/03/18 06:50:54;;;;;;;25.77;14.45;;;;;;;-146.64;100.00;113326.63;5034639;28;20021;-85
2022/03/18 06:53:19;;;;;;;22.15;12.02;;;;;;;-146.64;100.00;112792.97;5032903;28;20052;-82
2022/03/18 06:55:45;;;;;;;23.60;11.80;;;;;;;-146.64;100.00;112259.38;5028443;28;20374;-85
2022/03/18 06:58:10;;;;;;;19.50;9.93;;;;;;;-146.64;100.00;112259.38;5027274;28;20364;-83
2022/03/18 07:00:37;;;;;;;18.52;8.82;;;;;;;-146.64;100.00;111992.59;5032443;28;20030;-82
2022/03/18 07:03:03;;;;;;;17.48;9.00;;;;;;;-146.64;100.00;111992.59;5042196;28;20032;-84
2022/03/18 07:05:28;;;;;;;17.40;8.30;;;;;;;-146.64;100.00;111992.59;5013814;28;20097;-84
2022/03/18 07:07:53;;;;;;;19.33;9.70;;;;;;;-146.64;100.00;112259.38;5016636;28;20067;-84
2022/03/18 07:10:19;;;;;;;14.65;8.35;;;;;;;-146.64;100.00;112259.38;5048774;28;20056;-84
2022/03/18 07:12:45;;;;;;;19.50;8.70;;;;;;;-146.64;100.00;112526.16;5014332;28;20025;-86
2022/03/18 07:15:10;;;;;;;20.27;8.85;;;;;;;-146.64;100.00;112792.97;5044240;28;20513;-86
2022/03/18 07:20:19;;;;;;;15.00;8.73;;;;;;;-146.64;100.00;112792.97;5028190;28;20090;-86
2022/03/18 07:22:45;;;;;;;20.17;9.45;;;;;;;-146.64;100.00;112526.16;5006872;28;20037;-85
2022/03/18 07:25:10;;;;;;;15.80;8.65;;;;;;;-146.64;100.00;112259.38;5032138;28;20033;-86
2022/03/18 07:27:36;;;;;;;17.05;10.02;;;;;;;-146.64;100.00;113059.81;5021724;28;20433;-85
2022/03/18 07:30:03;;;;;;;20.52;12.77;;;;;;;-146.64;100.00;114127.28;5020368;28;20158;-84
2022/03/18 07:32:28;;;;;;;23.33;12.85;;;;;;;-146.64;100.00;113059.81;5034528;28;20089;-85
2022/03/18 07:34:54;;;;;;;21.35;12.48;;;;;;;-146.64;100.00;112259.38;5036609;28;20460;-86
2022/03/18 07:37:19;;;;;;;21.73;13.02;;;;;;;-146.64;100.00;111725.84;5037758;28;20033;-85
2022/03/18 07:39:44;;;;;;;19.77;12.15;;;;;;;-146.64;100.00;110125.69;5036845;28;20524;-84
2022/03/18 07:42:09;;;;;;;27.27;12.75;;;;;;;-146.64;100.00;107993.13;5034370;28;20545;-85
2022/03/18 07:44:36;;;;;;;22.88;11.63;;;;;;;-146.64;100.00;105329.00;5030942;28;20029;-86
2022/03/18 07:47:02;;;;;;;21.98;11.60;;;;;;;-146.64;100.00;102134.31;5035010;28;20095;-84
2022/03/18 07:49:27;;;;;;;21.77;9.77;;;;;;;-146.64;100.00;100803.97;5036339;28;20056;-86
2022/03/18 07:51:53;;;;;;;20.83;10.60;;;;;;;-146.64;100.00;98676.28;5019607;28;20040;-86
2022/03/18 07:54:18;;;;;;;21.27;9.95;;;;;;;-146.64;100.00;95752.53;5017541;28;20036;-87
2022/03/18 07:56:44;;;;;;;18.35;9.45;;;;;;;-146.64;100.00;93096.44;5037367;28;20025;-87
2022/03/18 07:59:09;;;;;;;25.60;9.60;;;;;;;-146.64;100.00;89646.09;5036522;28;20388;-86
2022/03/18 08:01:35;;;;;;;21.73;10.55;;;;;;;-146.64;100.00;87259.13;5016993;28;20057;-86
2022/03/18 08:04:01;;;;;;;15.93;8.77;;;;;;;-146.64;100.00;87524.28;5017500;28;20033;-87
2022/03/18 08:06:26;;;;;;;21.25;9.35;;;;;;;-146.64;100.00;86198.72;5035502;28;20036;-84
2022/03/18 08:08:52;;;;;;;20.75;8.75;;;;;;;-146.64;100.00;86728.88;5033003;28;20038;-86
2022/03/18 08:11:17;;;;;;;18.48;8.60;;;;;;;-146.64;100.00;86198.72;5019044;28;20132;-84
2022/03/18 08:13:45;;;;;;;20.05;8.82;;;;;;;-146.64;100.00;83813.78;5035814;28;20026;-86
2022/03/18 08:16:12;;;;;;;18.30;9.45;;;;;;;-146.64;100.00;80636.09;5020684;28;20018;-86
2022/03/18 08:18:37;;;;;;;12.45;8.52;;;;;;;-146.64;100.00;75874.25;5049202;28;20040;-84
2022/03/18 08:21:02;;;;;;;18.90;7.68;;;;;;;-146.64;100.00;63730.81;5020559;28;20041;-84
2022/03/18 08:23:29;;;;;;;19.83;7.15;;;;;;;-146.64;100.00;50881.19;5003132;28;20036;-86
2022/03/18 08:25:57;;;;;;;18.75;7.10;;;;;;;-146.64;100.00;51057.72;5042020;28;20041;-84
2022/03/18 08:28:23;;;;;;;23.17;8.00;;;;;;;-146.64;100.00;46007.19;5034653;28;20045;-86
2022/03/18 08:30:49;;;;;;;22.37;8.27;;;;;;;-146.64;100.00;42230.72;5032735;28;20026;-86
2022/03/18 08:33:14;;;;;;;16.27;7.07;;;;;;;-146.64;100.00;41540.56;5018972;28;20123;-87
2022/03/18 08:35:42;;;;;;;20.92;7.53;;;;;;;-146.64;100.00;41413.59;5020418;28;20393;-85
2022/03/18 08:38:09;;;;;;;20.60;7.43;;;;;;;-146.64;100.00;40791.16;5036431;28;20037;-85
2022/03/18 08:40:36;;;;;;;20.17;8.27;;;;;;;-146.64;100.00;40324.38;5016998;28;20038;-86
2022/03/18 08:43:07;;;;;;;14.10;6.25;;;;;;;-146.64;100.00;39820.81;5042006;28;20025;-86
2022/03/18 08:45:33;;;;;;;13.18;5.88;;;;;;;-146.64;100.00;39743.03;5018168;28;20040;-85
2022/03/18 08:47:58;;;;;;;17.95;7.28;;;;;;;-146.64;100.00;39820.81;5022200;28;20052;-85
2022/03/18 08:50:24;;;;;;;15.73;7.10;;;;;;;-146.64;100.00;39720.53;5031885;28;20041;-86
2022/03/18 08:52:51;;;;;;;17.88;6.97;;;;;;;-146.64;100.00;39530.16;5014487;28;20504;-86
2022/03/18 08:55:17;;;;;;;14.52;7.60;;;;;;;-146.64;100.00;39550.63;5013861;28;20033;-86
2022/03/18 08:57:42;;;;;;;14.55;6.28;;;;;;;-146.64;100.00;39489.25;5016718;28;20026;-87
2022/03/18 09:00:11;;;;;;;9.80;6.03;;;;;;;-146.64;100.00;39540.41;5010660;28;20180;-87
2022/03/18 09:02:38;;;;;;;17.35;6.28;;;;;;;-146.64;100.00;39358.25;5034161;28;20424;-87
2022/03/18 09:05:05;;;;;;;13.38;5.50;;;;;;;-146.64;100.00;39362.34;5034137;28;20216;-86
2022/03/18 09:07:31;;;;;;;11.27;5.40;;;;;;;-146.64;100.00;39253.88;5030139;28;20025;-84
2022/03/18 09:09:56;;;;;;;19.67;6.17;;;;;;;-146.64;100.00;39391.00;5035644;28;20041;-86
2022/03/18 09:12:22;;;;;;;16.03;6.43;;;;;;;-146.64;100.00;39227.28;5019660;28;20085;-87
2022/03/18 09:14:47;;;;;;;13.50;5.30;;;;;;;-146.64;100.00;39364.41;5018979;28;20093;-86
2022/03/18 09:17:12;;;;;;;15.55;5.90;;;;;;;-146.64;100.00;39333.69;5037676;28;20108;-86
2022/03/18 09:19:38;;;;;;;12.15;4.72;;;;;;;-146.64;100.00;39231.38;5033830;28;20037;-85
2022/03/18 09:22:07;;;;;;;14.67;4.93;;;;;;;-146.64;100.00;39210.91;5035932;28;20029;-85
2022/03/18 09:24:34;;;;;;;16.25;4.80;;;;;;;-146.64;100.00;39243.66;5035361;28;20025;-85
2022/03/18 09:27:00;;;;;;;11.20;4.57;;;;;;;-146.64;100.00;39190.44;5034727;28;20498;-88
2022/03/18 09:29:26;;;;;;;15.38;4.95;;;;;;;-146.64;100.00;39200.66;5035818;28;20021;-85
2022/03/18 09:31:52;;;;;;;15.10;5.47;;;;;;;-146.64;100.00;39178.16;5019490;28;20014;-86
2022/03/18 09:34:17;;;;;;;18.63;5.80;;;;;;;-146.64;100.00;39165.88;5016059;28;20026;-87
2022/03/18 09:36:44;;;;;;;13.27;5.30;;;;;;;-146.64;100.00;39139.28;5019225;28;20132;-85
2022/03/18 09:39:09;;;;;;;18.30;5.03;;;;;;;-146.64;100.00;38989.88;5034837;28;20053;-87
2022/03/18 09:41:34;;;;;;;19.10;4.80;;;;;;;-146.64;100.00;39071.75;5015909;28;20511;-87
2022/03/18 09:43:59;;;;;;;15.27;5.27;;;;;;;-146.64;100.00;39092.19;5018917;28;20028;-85
2022/03/18 09:46:25;;;;;;;21.00;5.03;;;;;;;-146.64;100.00;39055.38;5034425;28;20017;-84
2022/03/18 09:48:51;;;;;;;17.20;4.97;;;;;;;-146.64;100.00;38985.78;5032839;28;20056;-86
2022/03/18 09:51:17;;;;;;;16.05;5.18;;;;;;;-146.64;100.00;39043.09;5018139;28;20103;-85
2022/03/18 09:53:42;;;;;;;17.47;5.27;;;;;;;-146.64;100.00;39088.09;5017755;28;20045;-86
2022/03/18 09:56:08;;;;;;;14.60;5.43;;;;;;;-146.64;100.00;39006.25;5018392;28;20033;-84
2022/03/18 09:58:34;;;;;;;18.47;5.43;;;;;;;-146.64;100.00;38920.31;5034780;28;20081;-85
2022/03/18 10:01:01;;;;;;;16.43;5.10;;;;;;;-146.64;100.00;38934.63;5034276;28;20033;-86
2022/03/18 10:03:42;;;;;;;16.08;5.18;;;;;;;-146.64;100.00;38969.41;5033721;28;20045;-86
2022/03/18 10:06:10;;;;;;;13.55;4.50;;;;;;;-146.64;100.00;38887.56;5034003;28;20040;-84
2022/03/18 10:08:35;;;;;;;16.30;4.68;;;;;;;-146.64;100.00;38822.06;5033816;28;20028;-87
2022/03/18 10:11:32;;;;;;;12.33;4.83;;;;;;;-146.64;100.00;38908.03;5033669;28;20034;-87
2022/03/18 10:14:02;;;;;;;17.60;4.63;;;;;;;-146.64;100.00;38891.66;5035659;28;20034;-86
2022/03/18 10:16:39;;;;;;;15.95;4.72;;;;;;;-146.64;100.00;38871.19;5034921;28;20021;-87
2022/03/18 10:19:11;;;;;;;18.77;5.22;;;;;;;-146.64;100.00;38811.84;5023516;28;20030;-87
2022/03/18 10:21:57;;;;;;;15.80;5.25;;;;;;;-146.64;95.87;38789.34;5015509;28;20049;-86
2022/03/18 10:24:27;;;;;;;19.42;5.43;;;;;;;-146.64;93.88;38777.06;5037148;28;20358;-87
2022/03/18 10:27:13;;;;;;;18.45;5.47;;;;;;;-146.64;94.51;38760.69;5034496;28;20104;-86
2022/03/18 10:29:40;;;;;;;11.98;4.80;;;;;;;-146.64;94.59;38789.34;5034289;28;20220;-87
2022/03/18 10:32:05;;;;;;;;;;;;;;;-146.64;95.17;38725.91;5014677;28;20113;-86
2022/03/18 10:37:25;;;;;;;13.82;5.05;;;;;;;-146.64;92.42;38725.91;5019925;28;20494;-87
2022/03/18 10:39:58;;;;;;;14.30;4.63;;;;;;;-146.64;90.08;38666.56;5021868;28;20025;-87
2022/03/18 10:42:24;;;;;;;16.55;5.03;;;;;;;-146.64;90.08;38748.41;5017452;28;20469;-88
2022/03/18 10:44:51;;;;;;;14.83;4.87;;;;;;;-146.64;90.93;38680.88;5036397;28;20091;-88
2022/03/18 10:47:41;;;;;;;17.88;4.82;;;;;;;-146.64;90.68;38674.75;5027463;28;20361;-88
2022/03/18 10:50:29;;;;;;;17.52;5.18;;;;;;;-146.64;88.60;38687.03;5029319;28;20021;-87
2022/03/18 10:52:57;;;;;;;;;;;;;;;-146.64;87.63;38627.69;5007258;28;20040;-88
2022/03/18 10:55:26;;;;;;;16.13;5.32;;;;;;;-146.64;86.47;38654.28;5036798;28;20295;-87
2022/03/18 10:57:53;;;;;;;12.35;5.15;;;;;;;-146.64;86.86;38646.09;5043801;28;20384;-87
2022/03/18 11:00:20;;;;;;;14.40;4.97;;;;;;;-146.64;83.31;38584.72;5040986;28;20024;-87
2022/03/18 11:02:48;;;;;;;12.10;4.75;;;;;;;-146.64;83.92;38582.66;5042218;28;20113;-88
2022/03/18 11:05:14;;;;;;;18.55;6.07;;;;;;;-146.64;84.86;38601.06;5023088;28;20036;-86
2022/03/18 11:07:41;;;;;;;15.63;5.65;;;;;;;-146.64;84.46;38596.97;5039447;28;20029;-88
2022/03/18 11:12:54;;;;;;;12.25;5.57;;;;;;;-146.64;84.29;38568.34;5032528;28;20151;-87
2022/03/18 11:15:19;;;;;;;11.10;4.82;;;;;;;-146.64;82.36;38435.34;5039401;28;20120;-87
2022/03/18 11:17:46;;;;;;;24.60;6.07;;;;;;;-146.64;83.11;38486.50;5023139;28;20494;-88